Opal, WY

3:59 PM MST on February 23, 2017 (GMT -0700)
CST Inc. D'ville Shop | | Change Station
Active Advisory: Special Statement Active Notice: Public Information Statement

Elev 6972 ft 41.77 °N, 110.54 °W | Updated 14 minutes ago

Overcast
Overcast
23.0 °F
Feels Like 15 °F
N
7.0
Wind Variable Wind from West
Gusts 9.0 mph

Today
High -- | Low -- °F
--% Chance of Precip.
Yesterday
High -- | Low -- °F
Precip. -- in
Pressure 29.70 in
Visibility 2.5 miles
Clouds Scattered Clouds 1100 ft
Mostly Cloudy 2700 ft
Overcast 3400 ft
Windchill 15 °F
Dew Point 20 °F
Humidity 87%
Rainfall 0.00 in
Snow Depth Not available.
7:04 AM 6:04 PM
Waning Crescent, 8% visible
METAR KFBR 232255Z AUTO 26019G24KT 2 1/2SM BR SCT011 BKN027 OVC034 M05/M06 A2970 RMK AO2 T10471058
Pressure 29.70 in
Visibility 2.5 miles
Clouds Scattered Clouds 1100 ft
Mostly Cloudy 2700 ft
Overcast 3400 ft
Windchill 15 °F
Dew Point 20 °F
Humidity 87%
Rainfall 0.00 in
Snow Depth Not available.
7:04 AM 6:04 PM
Waning Crescent, 8% visible
METAR KFBR 232255Z AUTO 26019G24KT 2 1/2SM BR SCT011 BKN027 OVC034 M05/M06 A2970 RMK AO2 T10471058

Get Your Daily Forecast Email!

Thanks for signing up!

Be on the lookout for a verification email in your inbox.

You'll start receiving the daily forecast at 8 AM.

×

10-Day Weather Forecast

Almanac

Astronomy

Feb. 23, 2017 Rise Set
Actual Time
Civil Twilight
Nautical Twilight
Astronomical Twilight
Moon
Length of Visible Light
Length of Day
Tomorrow will be .
, % of the Moon is Illuminated

Today's Extremes

State Highs State Lows

Community

WunderPhotos

Upload Photos

1,962,540 photos uploaded!

WunderBlog® & News

Nearby

Air Quality

  Air Quality AQ Index Pollutant
Not available.

Snow Depth

Station Depth Elevation

Earthquake Activity

City Distance Mag. Time & Date
Minimum magnitude displayed is 2.5.

Coastal Water Temperatures

Place Temperature

Stations

Nearby Weather Stations

Station Location Temp. Windchill Dew Point Humidity Wind Precip. Elev Updated Type
                   

Watches & Warnings

Special Statement
Issued: 2:16 PM MST Feb. 23, 2017 – National Weather Service

Snow will continue through the day today. One to two inches are
expected the rest of today, with an additional 1 to 2 inches
possible tonight. Gusty west winds of 15 to 25 mph with gusts up
to 30 mph will continue into this evening causing blowing and
drifting snow. Roads will become slick today.



309 am MST Thu Feb 23 2017

... Snow will continue through the day today...

One to two inches are expected today, with an additional 1 to 2
inches possible tonight. Gusty west to northwest winds of 15 to 25
mph with gusts up to 30 mph will also develop this morning,
causing blowing and drifting snow. Roads will become slick today.